sensor_id;sensor_type;location;lat;lon;timestamp;temperature;humidity
27803;DHT22;15182;48.174;11.562;2024-02-04T00:02:22;12.10;90.60
27803;DHT22;15182;48.174;11.562;2024-02-04T00:04:52;12.10;90.70
27803;DHT22;15182;48.174;11.562;2024-02-04T00:07:20;12.10;90.70
27803;DHT22;15182;48.174;11.562;2024-02-04T00:09:48;12.10;90.70
27803;DHT22;15182;48.174;11.562;2024-02-04T00:12:16;12.10;90.70
27803;DHT22;15182;48.174;11.562;2024-02-04T00:14:43;12.10;90.70
27803;DHT22;15182;48.174;11.562;2024-02-04T00:17:11;12.00;90.80
27803;DHT22;15182;48.174;11.562;2024-02-04T00:19:41;12.00;90.80
27803;DHT22;15182;48.174;11.562;2024-02-04T00:22:11;12.00;90.80
27803;DHT22;15182;48.174;11.562;2024-02-04T00:24:38;12.00;90.90
27803;DHT22;15182;48.174;11.562;2024-02-04T00:27:06;12.00;90.90
27803;DHT22;15182;48.174;11.562;2024-02-04T00:29:35;11.90;90.90
27803;DHT22;15182;48.174;11.562;2024-02-04T00:32:02;11.90;90.90
27803;DHT22;15182;48.174;11.562;2024-02-04T00:34:31;11.90;90.90
27803;DHT22;15182;48.174;11.562;2024-02-04T00:36:58;11.80;91.00
27803;DHT22;15182;48.174;11.562;2024-02-04T00:39:28;11.80;91.00
27803;DHT22;15182;48.174;11.562;2024-02-04T00:41:55;11.80;91.20
27803;DHT22;15182;48.174;11.562;2024-02-04T00:44:23;11.80;91.10
27803;DHT22;15182;48.174;11.562;2024-02-04T00:46:51;11.70;91.20
27803;DHT22;15182;48.174;11.562;2024-02-04T00:49:19;11.70;91.20
27803;DHT22;15182;48.174;11.562;2024-02-04T00:51:47;11.70;91.20
27803;DHT22;15182;48.174;11.562;2024-02-04T00:54:14;11.60;91.20
27803;DHT22;15182;48.174;11.562;2024-02-04T00:56:44;11.60;91.30
27803;DHT22;15182;48.174;11.562;2024-02-04T00:59:12;11.60;91.40
27803;DHT22;15182;48.174;11.562;2024-02-04T01:01:40;11.50;91.40
27803;DHT22;15182;48.174;11.562;2024-02-04T01:04:08;11.50;91.50
27803;DHT22;15182;48.174;11.562;2024-02-04T01:06:37;11.50;91.50
27803;DHT22;15182;48.174;11.562;2024-02-04T01:09:05;11.50;91.60
27803;DHT22;15182;48.174;11.562;2024-02-04T01:11:33;11.40;91.60
27803;DHT22;15182;48.174;11.562;2024-02-04T01:14:02;11.40;91.60
27803;DHT22;15182;48.174;11.562;2024-02-04T01:16:30;11.40;91.80
27803;DHT22;15182;48.174;11.562;2024-02-04T01:18:57;11.40;92.10
27803;DHT22;15182;48.174;11.562;2024-02-04T01:21:25;11.40;91.80
27803;DHT22;15182;48.174;11.562;2024-02-04T01:23:54;11.30;91.80
27803;DHT22;15182;48.174;11.562;2024-02-04T01:26:22;11.30;91.80
27803;DHT22;15182;48.174;11.562;2024-02-04T01:28:50;11.30;91.80
27803;DHT22;15182;48.174;11.562;2024-02-04T01:31:19;11.30;91.80
27803;DHT22;15182;48.174;11.562;2024-02-04T01:33:47;11.30;91.90
27803;DHT22;15182;48.174;11.562;2024-02-04T01:36:15;11.30;91.80
27803;DHT22;15182;48.174;11.562;2024-02-04T01:38:43;11.20;91.80
27803;DHT22;15182;48.174;11.562;2024-02-04T01:41:11;11.20;91.90
27803;DHT22;15182;48.174;11.562;2024-02-04T01:43:40;11.20;91.90
27803;DHT22;15182;48.174;11.562;2024-02-04T01:46:08;11.20;91.90
27803;DHT22;15182;48.174;11.562;2024-02-04T01:48:37;11.20;92.00
27803;DHT22;15182;48.174;11.562;2024-02-04T01:51:05;11.20;92.00
27803;DHT22;15182;48.174;11.562;2024-02-04T01:53:34;11.10;92.00
27803;DHT22;15182;48.174;11.562;2024-02-04T01:56:03;11.10;92.00
27803;DHT22;15182;48.174;11.562;2024-02-04T01:58:33;11.10;92.00
27803;DHT22;15182;48.174;11.562;2024-02-04T02:01:00;11.10;92.10
27803;DHT22;15182;48.174;11.562;2024-02-04T02:03:31;11.10;92.10
27803;DHT22;15182;48.174;11.562;2024-02-04T02:06:01;11.10;92.10
27803;DHT22;15182;48.174;11.562;2024-02-04T02:08:28;11.20;92.20
27803;DHT22;15182;48.174;11.562;2024-02-04T02:11:02;11.10;92.10
27803;DHT22;15182;48.174;11.562;2024-02-04T02:13:34;11.20;92.20
27803;DHT22;15182;48.174;11.562;2024-02-04T02:16:07;11.20;92.20
27803;DHT22;15182;48.174;11.562;2024-02-04T02:18:45;11.10;92.20
27803;DHT22;15182;48.174;11.562;2024-02-04T02:21:26;11.20;92.10
27803;DHT22;15182;48.174;11.562;2024-02-04T02:24:10;11.20;92.30
27803;DHT22;15182;48.174;11.562;2024-02-04T02:26:40;11.20;92.20
27803;DHT22;15182;48.174;11.562;2024-02-04T02:29:09;11.20;92.20
27803;DHT22;15182;48.174;11.562;2024-02-04T02:31:38;11.20;92.10
27803;DHT22;15182;48.174;11.562;2024-02-04T02:34:06;11.20;92.10
27803;DHT22;15182;48.174;11.562;2024-02-04T02:36:41;11.20;92.00
27803;DHT22;15182;48.174;11.562;2024-02-04T02:39:17;11.20;92.10
27803;DHT22;15182;48.174;11.562;2024-02-04T02:41:50;11.20;92.10
27803;DHT22;15182;48.174;11.562;2024-02-04T02:44:18;11.20;92.10
27803;DHT22;15182;48.174;11.562;2024-02-04T02:46:47;11.20;92.40
27803;DHT22;15182;48.174;11.562;2024-02-04T02:49:15;11.20;92.10
27803;DHT22;15182;48.174;11.562;2024-02-04T02:51:43;11.30;92.10
27803;DHT22;15182;48.174;11.562;2024-02-04T02:54:11;11.20;92.00
27803;DHT22;15182;48.174;11.562;2024-02-04T02:56:39;11.20;92.00
27803;DHT22;15182;48.174;11.562;2024-02-04T02:59:08;11.30;92.00
27803;DHT22;15182;48.174;11.562;2024-02-04T03:01:39;11.30;92.10
27803;DHT22;15182;48.174;11.562;2024-02-04T03:04:07;11.20;92.10
27803;DHT22;15182;48.174;11.562;2024-02-04T03:06:35;11.20;92.10
27803;DHT22;15182;48.174;11.562;2024-02-04T03:09:02;11.20;92.10
27803;DHT22;15182;48.174;11.562;2024-02-04T03:11:30;11.20;92.10
27803;DHT22;15182;48.174;11.562;2024-02-04T03:13:58;11.20;92.10
27803;DHT22;15182;48.174;11.562;2024-02-04T03:16:27;11.20;92.10
27803;DHT22;15182;48.174;11.562;2024-02-04T03:18:55;11.30;92.20
27803;DHT22;15182;48.174;11.562;2024-02-04T03:21:23;11.20;92.20
27803;DHT22;15182;48.174;11.562;2024-02-04T03:23:50;11.20;92.20
27803;DHT22;15182;48.174;11.562;2024-02-04T03:26:18;11.30;92.20
27803;DHT22;15182;48.174;11.562;2024-02-04T03:28:47;11.30;92.20
27803;DHT22;15182;48.174;11.562;2024-02-04T03:31:19;11.30;92.20
27803;DHT22;15182;48.174;11.562;2024-02-04T03:33:49;11.30;92.30
27803;DHT22;15182;48.174;11.562;2024-02-04T03:36:21;11.30;92.30
27803;DHT22;15182;48.174;11.562;2024-02-04T03:38:50;11.30;92.30
27803;DHT22;15182;48.174;11.562;2024-02-04T03:41:18;11.30;92.30
27803;DHT22;15182;48.174;11.562;2024-02-04T03:43:46;11.30;92.30
27803;DHT22;15182;48.174;11.562;2024-02-04T03:46:14;11.30;92.30
27803;DHT22;15182;48.174;11.562;2024-02-04T03:48:43;11.20;92.30
27803;DHT22;15182;48.174;11.562;2024-02-04T03:51:16;11.20;92.70
27803;DHT22;15182;48.174;11.562;2024-02-04T03:53:46;11.30;92.40
27803;DHT22;15182;48.174;11.562;2024-02-04T03:56:15;11.20;92.30
27803;DHT22;15182;48.174;11.562;2024-02-04T03:58:42;11.20;92.40
27803;DHT22;15182;48.174;11.562;2024-02-04T04:01:10;11.20;92.40
27803;DHT22;15182;48.174;11.562;2024-02-04T04:03:39;11.20;92.40
27803;DHT22;15182;48.174;11.562;2024-02-04T04:06:07;11.20;92.50
27803;DHT22;15182;48.174;11.562;2024-02-04T04:08:37;11.20;92.50
27803;DHT22;15182;48.174;11.562;2024-02-04T04:11:06;11.20;92.60
27803;DHT22;15182;48.174;11.562;2024-02-04T04:13:36;11.20;92.60
27803;DHT22;15182;48.174;11.562;2024-02-04T04:16:05;11.20;92.90
27803;DHT22;15182;48.174;11.562;2024-02-04T04:18:33;11.30;92.60
27803;DHT22;15182;48.174;11.562;2024-02-04T04:21:01;11.20;92.60
27803;DHT22;15182;48.174;11.562;2024-02-04T04:23:29;11.30;92.70
27803;DHT22;15182;48.174;11.562;2024-02-04T04:25:58;11.30;92.80
27803;DHT22;15182;48.174;11.562;2024-02-04T04:28:26;11.30;92.90
27803;DHT22;15182;48.174;11.562;2024-02-04T04:30:54;11.20;92.90
27803;DHT22;15182;48.174;11.562;2024-02-04T04:33:22;11.20;93.40
27803;DHT22;15182;48.174;11.562;2024-02-04T04:35:50;11.20;93.00
27803;DHT22;15182;48.174;11.562;2024-02-04T04:38:18;11.20;93.00
27803;DHT22;15182;48.174;11.562;2024-02-04T04:40:45;11.20;93.10
27803;DHT22;15182;48.174;11.562;2024-02-04T04:43:14;11.20;93.20
27803;DHT22;15182;48.174;11.562;2024-02-04T04:45:42;11.20;93.70
27803;DHT22;15182;48.174;11.562;2024-02-04T04:48:10;11.20;93.20
27803;DHT22;15182;48.174;11.562;2024-02-04T04:50:38;11.20;93.30
27803;DHT22;15182;48.174;11.562;2024-02-04T04:53:06;11.20;93.30
27803;DHT22;15182;48.174;11.562;2024-02-04T04:55:33;11.30;93.30
27803;DHT22;15182;48.174;11.562;2024-02-04T04:58:01;11.30;93.30
27803;DHT22;15182;48.174;11.562;2024-02-04T05:00:30;11.30;93.30
27803;DHT22;15182;48.174;11.562;2024-02-04T05:02:58;11.30;93.30
27803;DHT22;15182;48.174;11.562;2024-02-04T05:05:26;11.30;93.60
27803;DHT22;15182;48.174;11.562;2024-02-04T05:07:54;11.30;93.20
27803;DHT22;15182;48.174;11.562;2024-02-04T05:10:22;11.30;93.20
27803;DHT22;15182;48.174;11.562;2024-02-04T05:12:50;11.30;93.10
27803;DHT22;15182;48.174;11.562;2024-02-04T05:15:17;11.30;93.10
27803;DHT22;15182;48.174;11.562;2024-02-04T05:17:47;11.30;93.00
27803;DHT22;15182;48.174;11.562;2024-02-04T05:20:15;11.30;93.10
27803;DHT22;15182;48.174;11.562;2024-02-04T05:22:42;11.30;93.10
27803;DHT22;15182;48.174;11.562;2024-02-04T05:25:10;11.30;93.10
27803;DHT22;15182;48.174;11.562;2024-02-04T05:27:38;11.30;93.10
27803;DHT22;15182;48.174;11.562;2024-02-04T05:30:07;11.30;93.10
27803;DHT22;15182;48.174;11.562;2024-02-04T05:32:35;11.20;93.10
27803;DHT22;15182;48.174;11.562;2024-02-04T05:35:07;11.20;93.10
27803;DHT22;15182;48.174;11.562;2024-02-04T05:37:35;11.20;93.20
27803;DHT22;15182;48.174;11.562;2024-02-04T05:40:04;11.20;93.20
27803;DHT22;15182;48.174;11.562;2024-02-04T05:42:33;11.20;93.30
27803;DHT22;15182;48.174;11.562;2024-02-04T05:45:02;11.20;93.30
27803;DHT22;15182;48.174;11.562;2024-02-04T05:47:31;11.20;93.50
27803;DHT22;15182;48.174;11.562;2024-02-04T05:49:59;11.20;93.60
27803;DHT22;15182;48.174;11.562;2024-02-04T05:52:28;11.20;93.80
27803;DHT22;15182;48.174;11.562;2024-02-04T05:54:56;11.20;93.90
27803;DHT22;15182;48.174;11.562;2024-02-04T05:57:24;11.10;93.90
27803;DHT22;15182;48.174;11.562;2024-02-04T05:59:52;11.10;94.00
27803;DHT22;15182;48.174;11.562;2024-02-04T06:02:21;11.10;94.50
27803;DHT22;15182;48.174;11.562;2024-02-04T06:04:49;11.10;94.20
27803;DHT22;15182;48.174;11.562;2024-02-04T06:07:17;11.20;94.20
27803;DHT22;15182;48.174;11.562;2024-02-04T06:09:46;11.20;94.30
27803;DHT22;15182;48.174;11.562;2024-02-04T06:12:14;11.20;94.40
27803;DHT22;15182;48.174;11.562;2024-02-04T06:14:41;11.20;94.40
27803;DHT22;15182;48.174;11.562;2024-02-04T06:17:09;11.20;94.40
27803;DHT22;15182;48.174;11.562;2024-02-04T06:19:37;11.20;94.40
27803;DHT22;15182;48.174;11.562;2024-02-04T06:22:05;11.20;94.40
27803;DHT22;15182;48.174;11.562;2024-02-04T06:24:32;11.20;94.50
27803;DHT22;15182;48.174;11.562;2024-02-04T06:27:02;11.20;94.50
27803;DHT22;15182;48.174;11.562;2024-02-04T06:29:30;11.20;94.60
27803;DHT22;15182;48.174;11.562;2024-02-04T06:31:58;11.20;94.50
27803;DHT22;15182;48.174;11.562;2024-02-04T06:34:25;11.30;94.60
27803;DHT22;15182;48.174;11.562;2024-02-04T06:36:53;11.30;94.90
27803;DHT22;15182;48.174;11.562;2024-02-04T06:39:21;11.30;95.00
27803;DHT22;15182;48.174;11.562;2024-02-04T06:41:49;11.30;94.60
27803;DHT22;15182;48.174;11.562;2024-02-04T06:44:19;11.30;94.60
27803;DHT22;15182;48.174;11.562;2024-02-04T06:46:46;11.30;94.70
27803;DHT22;15182;48.174;11.562;2024-02-04T06:49:14;11.30;94.60
27803;DHT22;15182;48.174;11.562;2024-02-04T06:51:44;11.30;94.60
27803;DHT22;15182;48.174;11.562;2024-02-04T06:54:13;11.30;94.70
27803;DHT22;15182;48.174;11.562;2024-02-04T06:56:41;11.30;94.60
27803;DHT22;15182;48.174;11.562;2024-02-04T06:59:09;11.40;94.70
27803;DHT22;15182;48.174;11.562;2024-02-04T07:01:38;11.40;94.70
27803;DHT22;15182;48.174;11.562;2024-02-04T07:04:06;11.40;94.70
27803;DHT22;15182;48.174;11.562;2024-02-04T07:06:33;11.40;94.90
27803;DHT22;15182;48.174;11.562;2024-02-04T07:09:01;11.40;94.50
27803;DHT22;15182;48.174;11.562;2024-02-04T07:11:29;11.40;94.50
27803;DHT22;15182;48.174;11.562;2024-02-04T07:13:58;11.40;94.50
27803;DHT22;15182;48.174;11.562;2024-02-04T07:16:26;11.40;94.50
27803;DHT22;15182;48.174;11.562;2024-02-04T07:18:55;11.40;94.50
27803;DHT22;15182;48.174;11.562;2024-02-04T07:21:23;11.40;94.50
27803;DHT22;15182;48.174;11.562;2024-02-04T07:23:51;11.40;94.50
27803;DHT22;15182;48.174;11.562;2024-02-04T07:26:19;11.40;94.50
27803;DHT22;15182;48.174;11.562;2024-02-04T07:28:46;11.40;94.50
27803;DHT22;15182;48.174;11.562;2024-02-04T07:31:14;11.40;94.50
27803;DHT22;15182;48.174;11.562;2024-02-04T07:33:42;11.40;94.50
27803;DHT22;15182;48.174;11.562;2024-02-04T07:36:12;11.40;94.50
27803;DHT22;15182;48.174;11.562;2024-02-04T07:38:39;11.40;94.60
27803;DHT22;15182;48.174;11.562;2024-02-04T07:41:07;11.40;94.50
27803;DHT22;15182;48.174;11.562;2024-02-04T07:43:35;11.40;94.50
27803;DHT22;15182;48.174;11.562;2024-02-04T07:46:03;11.40;94.40
27803;DHT22;15182;48.174;11.562;2024-02-04T07:48:31;11.40;94.80
27803;DHT22;15182;48.174;11.562;2024-02-04T07:50:59;11.40;94.40
27803;DHT22;15182;48.174;11.562;2024-02-04T07:53:29;11.50;94.40
27803;DHT22;15182;48.174;11.562;2024-02-04T07:55:57;11.50;94.50
27803;DHT22;15182;48.174;11.562;2024-02-04T07:58:24;11.50;94.40
27803;DHT22;15182;48.174;11.562;2024-02-04T08:00:53;11.50;94.30
27803;DHT22;15182;48.174;11.562;2024-02-04T08:03:21;11.50;94.30
27803;DHT22;15182;48.174;11.562;2024-02-04T08:05:49;11.50;94.30
27803;DHT22;15182;48.174;11.562;2024-02-04T08:08:16;11.50;94.30
27803;DHT22;15182;48.174;11.562;2024-02-04T08:10:45;11.50;94.30
27803;DHT22;15182;48.174;11.562;2024-02-04T08:13:12;11.60;94.70
27803;DHT22;15182;48.174;11.562;2024-02-04T08:15:40;11.60;94.30
27803;DHT22;15182;48.174;11.562;2024-02-04T08:18:08;11.60;94.60
27803;DHT22;15182;48.174;11.562;2024-02-04T08:20:36;11.60;94.20
27803;DHT22;15182;48.174;11.562;2024-02-04T08:23:04;11.60;94.20
27803;DHT22;15182;48.174;11.562;2024-02-04T08:25:31;11.70;94.20
27803;DHT22;15182;48.174;11.562;2024-02-04T08:28:00;11.70;94.10
27803;DHT22;15182;48.174;11.562;2024-02-04T08:30:28;11.70;94.10
27803;DHT22;15182;48.174;11.562;2024-02-04T08:32:57;11.80;94.10
27803;DHT22;15182;48.174;11.562;2024-02-04T08:35:25;11.80;94.00
27803;DHT22;15182;48.174;11.562;2024-02-04T08:37:52;11.80;94.00
27803;DHT22;15182;48.174;11.562;2024-02-04T08:40:20;11.90;94.40
27803;DHT22;15182;48.174;11.562;2024-02-04T08:42:48;11.90;94.00
27803;DHT22;15182;48.174;11.562;2024-02-04T08:45:17;11.90;94.00
27803;DHT22;15182;48.174;11.562;2024-02-04T08:47:45;11.90;94.00
27803;DHT22;15182;48.174;11.562;2024-02-04T08:50:13;12.00;94.00
27803;DHT22;15182;48.174;11.562;2024-02-04T08:52:40;12.00;94.00
27803;DHT22;15182;48.174;11.562;2024-02-04T08:55:08;12.00;94.00
27803;DHT22;15182;48.174;11.562;2024-02-04T08:57:36;12.10;94.40
27803;DHT22;15182;48.174;11.562;2024-02-04T09:00:05;12.10;94.00
27803;DHT22;15182;48.174;11.562;2024-02-04T09:02:36;12.20;94.00
27803;DHT22;15182;48.174;11.562;2024-02-04T09:05:04;12.20;93.90
27803;DHT22;15182;48.174;11.562;2024-02-04T09:07:33;12.20;93.90
27803;DHT22;15182;48.174;11.562;2024-02-04T09:10:00;12.30;93.90
27803;DHT22;15182;48.174;11.562;2024-02-04T09:12:28;12.30;93.90
27803;DHT22;15182;48.174;11.562;2024-02-04T09:14:56;12.40;93.90
27803;DHT22;15182;48.174;11.562;2024-02-04T09:17:24;12.40;93.80
27803;DHT22;15182;48.174;11.562;2024-02-04T09:19:53;12.50;93.90
27803;DHT22;15182;48.174;11.562;2024-02-04T09:22:21;12.50;93.90
27803;DHT22;15182;48.174;11.562;2024-02-04T09:24:49;12.60;93.80
27803;DHT22;15182;48.174;11.562;2024-02-04T09:27:16;12.60;93.80
27803;DHT22;15182;48.174;11.562;2024-02-04T09:29:44;12.70;93.70
27803;DHT22;15182;48.174;11.562;2024-02-04T09:32:12;12.70;93.60
27803;DHT22;15182;48.174;11.562;2024-02-04T09:34:40;12.80;93.50
27803;DHT22;15182;48.174;11.562;2024-02-04T09:37:09;12.90;93.40
27803;DHT22;15182;48.174;11.562;2024-02-04T09:39:37;12.90;93.30
27803;DHT22;15182;48.174;11.562;2024-02-04T09:42:04;12.80;93.20
27803;DHT22;15182;48.174;11.562;2024-02-04T09:44:33;12.80;93.10
27803;DHT22;15182;48.174;11.562;2024-02-04T09:47:02;12.90;93.10
27803;DHT22;15182;48.174;11.562;2024-02-04T09:49:30;12.80;93.20
27803;DHT22;15182;48.174;11.562;2024-02-04T09:52:07;12.80;93.20
27803;DHT22;15182;48.174;11.562;2024-02-04T09:54:41;12.80;93.20
27803;DHT22;15182;48.174;11.562;2024-02-04T09:57:12;12.80;93.20
27803;DHT22;15182;48.174;11.562;2024-02-04T09:59:40;12.80;93.20
27803;DHT22;15182;48.174;11.562;2024-02-04T10:02:10;12.80;93.20
27803;DHT22;15182;48.174;11.562;2024-02-04T10:04:38;12.80;93.20
27803;DHT22;15182;48.174;11.562;2024-02-04T10:07:06;12.80;93.30
27803;DHT22;15182;48.174;11.562;2024-02-04T10:09:36;12.80;93.30
27803;DHT22;15182;48.174;11.562;2024-02-04T10:12:04;12.90;93.30
27803;DHT22;15182;48.174;11.562;2024-02-04T10:14:35;12.90;93.30
27803;DHT22;15182;48.174;11.562;2024-02-04T10:17:04;12.90;93.20
27803;DHT22;15182;48.174;11.562;2024-02-04T10:19:31;12.90;93.20
27803;DHT22;15182;48.174;11.562;2024-02-04T10:22:00;13.00;93.20
27803;DHT22;15182;48.174;11.562;2024-02-04T10:24:29;13.00;93.20
27803;DHT22;15182;48.174;11.562;2024-02-04T10:26:58;13.00;93.30
27803;DHT22;15182;48.174;11.562;2024-02-04T10:29:26;13.00;93.20
27803;DHT22;15182;48.174;11.562;2024-02-04T10:31:54;13.00;93.20
27803;DHT22;15182;48.174;11.562;2024-02-04T10:34:22;13.00;93.30
27803;DHT22;15182;48.174;11.562;2024-02-04T10:36:50;13.10;93.70
27803;DHT22;15182;48.174;11.562;2024-02-04T10:39:18;13.20;93.20
27803;DHT22;15182;48.174;11.562;2024-02-04T10:41:50;13.20;93.10
27803;DHT22;15182;48.174;11.562;2024-02-04T10:44:22;13.20;92.90
27803;DHT22;15182;48.174;11.562;2024-02-04T10:46:51;13.30;92.90
27803;DHT22;15182;48.174;11.562;2024-02-04T10:49:20;13.30;93.00
27803;DHT22;15182;48.174;11.562;2024-02-04T10:51:47;13.30;92.90
27803;DHT22;15182;48.174;11.562;2024-02-04T10:54:16;13.40;92.80
27803;DHT22;15182;48.174;11.562;2024-02-04T10:56:45;13.40;92.80
27803;DHT22;15182;48.174;11.562;2024-02-04T10:59:17;13.30;92.70
27803;DHT22;15182;48.174;11.562;2024-02-04T11:01:47;13.40;92.80
27803;DHT22;15182;48.174;11.562;2024-02-04T11:04:17;13.40;92.80
27803;DHT22;15182;48.174;11.562;2024-02-04T11:06:45;13.40;92.80
27803;DHT22;15182;48.174;11.562;2024-02-04T11:09:13;13.40;92.70
27803;DHT22;15182;48.174;11.562;2024-02-04T11:11:42;13.40;92.70
27803;DHT22;15182;48.174;11.562;2024-02-04T11:14:13;13.40;92.70
27803;DHT22;15182;48.174;11.562;2024-02-04T11:20:10;13.50;92.90
27803;DHT22;15182;48.174;11.562;2024-02-04T11:23:01;13.60;92.90
27803;DHT22;15182;48.174;11.562;2024-02-04T11:25:44;13.70;92.90
27803;DHT22;15182;48.174;11.562;2024-02-04T11:28:13;13.80;92.80
27803;DHT22;15182;48.174;11.562;2024-02-04T11:30:44;13.90;93.20
27803;DHT22;15182;48.174;11.562;2024-02-04T11:33:13;14.00;92.90
27803;DHT22;15182;48.174;11.562;2024-02-04T11:35:45;14.10;92.80
27803;DHT22;15182;48.174;11.562;2024-02-04T11:38:17;14.20;92.60
27803;DHT22;15182;48.174;11.562;2024-02-04T11:40:45;14.40;92.40
27803;DHT22;15182;48.174;11.562;2024-02-04T11:43:14;14.40;92.20
27803;DHT22;15182;48.174;11.562;2024-02-04T11:45:44;14.40;92.20
27803;DHT22;15182;48.174;11.562;2024-02-04T11:48:13;14.40;92.10
27803;DHT22;15182;48.174;11.562;2024-02-04T11:50:43;14.50;92.00
27803;DHT22;15182;48.174;11.562;2024-02-04T11:53:12;14.50;92.00
27803;DHT22;15182;48.174;11.562;2024-02-04T11:55:41;14.50;92.30
27803;DHT22;15182;48.174;11.562;2024-02-04T11:58:09;14.50;91.90
27803;DHT22;15182;48.174;11.562;2024-02-04T12:00:43;14.50;91.90
27803;DHT22;15182;48.174;11.562;2024-02-04T12:03:13;14.50;91.90
27803;DHT22;15182;48.174;11.562;2024-02-04T12:05:41;14.50;92.00
27803;DHT22;15182;48.174;11.562;2024-02-04T12:08:12;14.50;92.00
27803;DHT22;15182;48.174;11.562;2024-02-04T12:10:40;14.50;91.90
27803;DHT22;15182;48.174;11.562;2024-02-04T12:13:08;14.50;91.80
27803;DHT22;15182;48.174;11.562;2024-02-04T12:15:36;14.50;91.80
27803;DHT22;15182;48.174;11.562;2024-02-04T12:18:09;14.50;91.70
27803;DHT22;15182;48.174;11.562;2024-02-04T12:20:38;14.50;91.70
27803;DHT22;15182;48.174;11.562;2024-02-04T12:23:06;14.40;91.80
27803;DHT22;15182;48.174;11.562;2024-02-04T12:25:35;14.40;91.80
27803;DHT22;15182;48.174;11.562;2024-02-04T12:28:03;14.40;91.80
27803;DHT22;15182;48.174;11.562;2024-02-04T12:30:33;14.40;91.80
27803;DHT22;15182;48.174;11.562;2024-02-04T12:33:02;14.40;91.80
27803;DHT22;15182;48.174;11.562;2024-02-04T12:35:33;14.40;91.80
27803;DHT22;15182;48.174;11.562;2024-02-04T12:38:01;14.40;91.80
27803;DHT22;15182;48.174;11.562;2024-02-04T12:40:30;14.40;91.80
27803;DHT22;15182;48.174;11.562;2024-02-04T12:43:00;14.40;91.80
27803;DHT22;15182;48.174;11.562;2024-02-04T12:45:29;14.40;91.70
27803;DHT22;15182;48.174;11.562;2024-02-04T12:47:58;14.40;91.80
27803;DHT22;15182;48.174;11.562;2024-02-04T12:50:26;14.30;91.70
27803;DHT22;15182;48.174;11.562;2024-02-04T12:53:04;14.30;91.80
27803;DHT22;15182;48.174;11.562;2024-02-04T12:55:33;14.30;91.70
27803;DHT22;15182;48.174;11.562;2024-02-04T12:58:03;14.30;91.80
27803;DHT22;15182;48.174;11.562;2024-02-04T13:00:32;14.30;91.80
27803;DHT22;15182;48.174;11.562;2024-02-04T13:03:00;14.30;91.90
27803;DHT22;15182;48.174;11.562;2024-02-04T13:05:28;14.40;91.90
27803;DHT22;15182;48.174;11.562;2024-02-04T13:07:58;14.40;91.90
27803;DHT22;15182;48.174;11.562;2024-02-04T13:10:31;14.40;91.90
27803;DHT22;15182;48.174;11.562;2024-02-04T13:13:04;14.40;91.90
27803;DHT22;15182;48.174;11.562;2024-02-04T13:15:36;14.40;91.80
27803;DHT22;15182;48.174;11.562;2024-02-04T13:18:05;14.50;91.90
27803;DHT22;15182;48.174;11.562;2024-02-04T13:20:33;14.50;91.80
27803;DHT22;15182;48.174;11.562;2024-02-04T13:23:01;14.50;91.70
27803;DHT22;15182;48.174;11.562;2024-02-04T13:25:32;14.50;91.70
27803;DHT22;15182;48.174;11.562;2024-02-04T13:28:00;14.50;91.70
27803;DHT22;15182;48.174;11.562;2024-02-04T13:30:29;14.50;92.10
27803;DHT22;15182;48.174;11.562;2024-02-04T13:32:57;14.50;91.60
27803;DHT22;15182;48.174;11.562;2024-02-04T13:35:28;14.60;91.60
27803;DHT22;15182;48.174;11.562;2024-02-04T13:37:56;14.60;91.50
27803;DHT22;15182;48.174;11.562;2024-02-04T13:40:24;14.60;91.60
27803;DHT22;15182;48.174;11.562;2024-02-04T13:42:53;14.60;91.60
27803;DHT22;15182;48.174;11.562;2024-02-04T13:45:21;14.50;91.70
27803;DHT22;15182;48.174;11.562;2024-02-04T13:47:49;14.50;92.00
27803;DHT22;15182;48.174;11.562;2024-02-04T13:50:17;14.60;91.60
27803;DHT22;15182;48.174;11.562;2024-02-04T13:52:44;14.50;91.50
27803;DHT22;15182;48.174;11.562;2024-02-04T13:55:12;14.50;91.50
27803;DHT22;15182;48.174;11.562;2024-02-04T13:57:40;14.50;91.50
27803;DHT22;15182;48.174;11.562;2024-02-04T14:00:11;14.50;91.50
27803;DHT22;15182;48.174;11.562;2024-02-04T14:02:39;14.50;91.50
27803;DHT22;15182;48.174;11.562;2024-02-04T14:05:07;14.60;91.50
27803;DHT22;15182;48.174;11.562;2024-02-04T14:07:36;14.60;91.50
27803;DHT22;15182;48.174;11.562;2024-02-04T14:10:05;14.60;91.50
27803;DHT22;15182;48.174;11.562;2024-02-04T14:12:34;14.50;91.50
27803;DHT22;15182;48.174;11.562;2024-02-04T14:15:02;14.50;91.50
27803;DHT22;15182;48.174;11.562;2024-02-04T14:17:32;14.50;91.50
27803;DHT22;15182;48.174;11.562;2024-02-04T14:20:00;14.50;91.50
27803;DHT22;15182;48.174;11.562;2024-02-04T14:22:28;14.50;91.50
27803;DHT22;15182;48.174;11.562;2024-02-04T14:24:56;14.50;91.50
27803;DHT22;15182;48.174;11.562;2024-02-04T14:27:26;14.50;91.50
27803;DHT22;15182;48.174;11.562;2024-02-04T14:29:55;14.50;91.50
27803;DHT22;15182;48.174;11.562;2024-02-04T14:32:22;14.50;91.50
27803;DHT22;15182;48.174;11.562;2024-02-04T14:34:52;14.50;91.60
27803;DHT22;15182;48.174;11.562;2024-02-04T14:37:21;14.50;91.50
27803;DHT22;15182;48.174;11.562;2024-02-04T14:39:48;14.50;91.60
27803;DHT22;15182;48.174;11.562;2024-02-04T14:42:16;14.50;91.90
27803;DHT22;15182;48.174;11.562;2024-02-04T14:44:44;14.50;91.50
27803;DHT22;15182;48.174;11.562;2024-02-04T14:47:12;14.50;91.50
27803;DHT22;15182;48.174;11.562;2024-02-04T14:49:40;14.50;91.50
27803;DHT22;15182;48.174;11.562;2024-02-04T14:52:09;14.50;91.90
27803;DHT22;15182;48.174;11.562;2024-02-04T14:54:38;14.50;91.50
27803;DHT22;15182;48.174;11.562;2024-02-04T14:57:05;14.50;91.50
27803;DHT22;15182;48.174;11.562;2024-02-04T14:59:35;14.50;91.50
27803;DHT22;15182;48.174;11.562;2024-02-04T15:02:04;14.50;91.50
27803;DHT22;15182;48.174;11.562;2024-02-04T15:04:31;14.60;91.60
27803;DHT22;15182;48.174;11.562;2024-02-04T15:06:59;14.60;91.50
27803;DHT22;15182;48.174;11.562;2024-02-04T15:09:32;14.60;92.00
27803;DHT22;15182;48.174;11.562;2024-02-04T15:12:01;14.60;91.60
27803;DHT22;15182;48.174;11.562;2024-02-04T15:14:30;14.60;91.60
27803;DHT22;15182;48.174;11.562;2024-02-04T15:16:58;14.50;91.50
27803;DHT22;15182;48.174;11.562;2024-02-04T15:19:27;14.60;91.60
27803;DHT22;15182;48.174;11.562;2024-02-04T15:21:56;14.60;91.60
27803;DHT22;15182;48.174;11.562;2024-02-04T15:24:25;14.60;91.60
27803;DHT22;15182;48.174;11.562;2024-02-04T15:26:56;14.60;91.60
27803;DHT22;15182;48.174;11.562;2024-02-04T15:29:27;14.60;92.00